createdAt,value
2023-02-19T00:01:24.010Z,33.87
2023-02-19T00:03:55.256Z,33.70
2023-02-19T00:06:23.369Z,30.10
2023-02-19T00:08:50.816Z,36.87
2023-02-19T00:11:22.588Z,40.37
2023-02-19T00:13:51.776Z,36.93
2023-02-19T00:16:21.273Z,39.03
2023-02-19T00:18:48.725Z,37.57
2023-02-19T00:21:16.795Z,33.77
2023-02-19T00:23:44.271Z,33.00
2023-02-19T00:26:18.597Z,36.80
2023-02-19T00:28:50.538Z,32.23
2023-02-19T00:31:36.438Z,28.20
2023-02-19T00:34:05.604Z,31.43
2023-02-19T00:36:34.943Z,36.87
2023-02-19T00:39:02.522Z,35.20
2023-02-19T00:41:30.548Z,36.63
2023-02-19T00:43:58.870Z,31.53
2023-02-19T00:46:27.645Z,32.60
2023-02-19T00:48:55.388Z,30.67
2023-02-19T00:51:24.137Z,28.73
2023-02-19T00:53:51.784Z,24.10
2023-02-19T00:56:19.263Z,28.40
2023-02-19T00:58:47.456Z,32.40
2023-02-19T01:01:15.116Z,20.37
2023-02-19T01:03:42.610Z,22.10
2023-02-19T01:06:10.781Z,18.23
2023-02-19T01:08:38.441Z,18.80
2023-02-19T01:11:06.759Z,17.47
2023-02-19T01:13:34.142Z,16.50
2023-02-19T01:16:06.210Z,19.47
2023-02-19T01:18:33.899Z,21.83
2023-02-19T01:21:01.192Z,20.03
2023-02-19T01:23:28.528Z,28.33
2023-02-19T01:25:55.864Z,21.17
2023-02-19T01:28:23.306Z,24.83
2023-02-19T01:30:50.652Z,22.70
2023-02-19T01:33:17.940Z,20.37
2023-02-19T01:35:45.244Z,20.80
2023-02-19T01:38:12.834Z,21.77
2023-02-19T01:40:40.156Z,24.63
2023-02-19T01:43:12.330Z,23.77
2023-02-19T01:45:40.192Z,23.97
2023-02-19T01:48:36.996Z,26.80
2023-02-19T01:51:04.566Z,21.73
2023-02-19T01:53:34.297Z,22.63
2023-02-19T01:56:01.881Z,25.30
2023-02-19T01:58:32.478Z,22.10
2023-02-19T02:01:00.412Z,25.73
2023-02-19T02:03:28.364Z,24.17
2023-02-19T02:06:14.499Z,23.03
2023-02-19T02:09:01.035Z,25.20
2023-02-19T02:11:28.601Z,19.80
2023-02-19T02:13:56.144Z,26.37
2023-02-19T02:16:29.709Z,23.10
2023-02-19T02:19:00.649Z,24.27
2023-02-19T02:21:27.930Z,22.50
2023-02-19T02:23:55.216Z,21.60
2023-02-19T02:26:26.566Z,20.13
2023-02-19T02:29:00.035Z,25.73
2023-02-19T02:31:31.534Z,16.07
2023-02-19T02:34:02.412Z,21.37
2023-02-19T02:36:32.200Z,23.67
2023-02-19T02:39:01.708Z,23.87
2023-02-19T02:41:29.136Z,23.67
2023-02-19T02:43:56.441Z,16.73
2023-02-19T02:46:27.311Z,23.73
2023-02-19T02:48:58.997Z,19.80
2023-02-19T02:51:29.384Z,24.97
2023-02-19T02:54:29.125Z,27.03
2023-02-19T02:56:59.174Z,22.03
2023-02-19T02:59:34.269Z,23.83
2023-02-19T03:02:14.122Z,22.17
2023-02-19T03:05:19.122Z,23.33
2023-02-19T03:07:48.428Z,27.50
2023-02-19T03:10:26.242Z,24.37
2023-02-19T03:13:14.253Z,29.70
2023-02-19T03:16:06.629Z,26.70
2023-02-19T03:18:54.270Z,29.23
2023-02-19T03:21:23.014Z,27.03
2023-02-19T03:24:10.251Z,22.80
2023-02-19T03:26:39.737Z,29.97
2023-02-19T03:29:23.271Z,29.10
2023-02-19T03:31:58.314Z,28.33
2023-02-19T03:34:35.507Z,25.13
2023-02-19T03:37:07.394Z,34.57
2023-02-19T03:39:44.202Z,28.10
2023-02-19T03:42:22.652Z,36.67
2023-02-19T03:45:08.943Z,24.57
2023-02-19T03:47:49.888Z,27.03
2023-02-19T03:50:30.013Z,21.03
2023-02-19T03:53:18.313Z,31.63
2023-02-19T03:55:49.143Z,32.73
2023-02-19T03:58:16.606Z,38.23
2023-02-19T04:00:54.357Z,37.43
2023-02-19T04:03:38.907Z,36.00
2023-02-19T04:06:10.793Z,34.33
2023-02-19T04:08:39.479Z,32.03
2023-02-19T04:11:07.056Z,34.73
2023-02-19T04:13:42.562Z,36.00
2023-02-19T04:16:12.574Z,30.33
2023-02-19T04:18:41.851Z,42.57
2023-02-19T04:21:13.332Z,29.60
2023-02-19T04:23:43.550Z,36.40
2023-02-19T04:26:11.998Z,34.93
2023-02-19T04:28:39.881Z,27.17
2023-02-19T04:31:07.945Z,34.60
2023-02-19T04:33:35.480Z,32.30
2023-02-19T04:36:02.779Z,43.10
2023-02-19T04:38:30.050Z,30.27
2023-02-19T04:40:57.824Z,23.63
2023-02-19T04:43:25.181Z,28.80
2023-02-19T04:45:52.944Z,19.77
2023-02-19T04:48:20.250Z,33.10
2023-02-19T04:50:47.604Z,31.10
2023-02-19T04:53:14.873Z,28.43
2023-02-19T04:55:42.209Z,22.70
2023-02-19T04:58:09.531Z,24.67
2023-02-19T05:00:37.157Z,27.67
2023-02-19T05:03:04.435Z,20.60
2023-02-19T05:05:31.695Z,23.90
2023-02-19T05:07:59.040Z,17.97
2023-02-19T05:10:26.372Z,24.80
2023-02-19T05:12:57.776Z,17.60
2023-02-19T05:15:25.317Z,15.40
2023-02-19T05:17:52.607Z,17.30
2023-02-19T05:20:19.995Z,13.57
2023-02-19T05:22:47.245Z,19.30
2023-02-19T05:25:14.558Z,13.93
2023-02-19T05:27:41.899Z,6.50
2023-02-19T05:30:09.850Z,9.73
2023-02-19T05:32:37.549Z,7.17
2023-02-19T05:35:04.956Z,8.00
2023-02-19T05:37:32.228Z,4.93
2023-02-19T05:39:59.487Z,7.73
2023-02-19T05:42:26.824Z,2.47
2023-02-19T05:44:54.427Z,2.97
2023-02-19T05:47:21.786Z,4.30
2023-02-19T05:49:49.100Z,3.13
2023-02-19T05:52:16.398Z,2.30
2023-02-19T05:54:43.686Z,1.73
2023-02-19T05:57:11.163Z,2.37
2023-02-19T05:59:38.650Z,1.80
2023-02-19T06:02:05.994Z,2.13
2023-02-19T06:04:33.430Z,4.00
2023-02-19T06:07:00.772Z,2.20
2023-02-19T06:09:28.080Z,2.80
2023-02-19T06:11:55.360Z,2.60
2023-02-19T06:14:22.847Z,3.63
2023-02-19T06:16:50.137Z,3.77
2023-02-19T06:19:17.455Z,4.13
2023-02-19T06:21:46.742Z,4.47
2023-02-19T06:24:14.057Z,4.33
2023-02-19T06:26:41.393Z,6.47
2023-02-19T06:29:08.933Z,4.73
2023-02-19T06:31:36.536Z,6.30
2023-02-19T06:34:04.900Z,5.70
2023-02-19T06:36:32.264Z,5.97
2023-02-19T06:39:04.271Z,13.67
2023-02-19T06:41:31.929Z,105.88
2023-02-19T06:43:59.426Z,8.20
2023-02-19T06:46:34.169Z,7.17
2023-02-19T06:49:10.380Z,4.37
2023-02-19T06:51:40.081Z,6.57
2023-02-19T06:54:07.435Z,4.13
2023-02-19T06:56:37.494Z,7.43
2023-02-19T06:59:06.006Z,3.30
2023-02-19T07:01:34.012Z,1.63
2023-02-19T07:04:01.374Z,1.63
2023-02-19T07:06:29.148Z,5.77
2023-02-19T07:08:57.391Z,5.87
2023-02-19T07:11:24.980Z,2.20
2023-02-19T07:13:59.572Z,5.13
2023-02-19T07:16:27.421Z,3.60
2023-02-19T07:18:56.941Z,4.47
2023-02-19T07:21:24.656Z,3.90
2023-02-19T07:23:51.959Z,6.67
2023-02-19T07:26:20.091Z,9.10
2023-02-19T07:28:48.496Z,8.07
2023-02-19T07:31:16.731Z,6.53
2023-02-19T07:33:44.633Z,6.93
2023-02-19T07:36:12.541Z,5.20
2023-02-19T07:38:40.557Z,5.03
2023-02-19T07:41:08.664Z,4.23
2023-02-19T07:43:37.142Z,6.33
2023-02-19T07:46:12.024Z,6.57
2023-02-19T07:48:39.900Z,6.43
2023-02-19T07:51:12.114Z,11.67
2023-02-19T07:53:39.819Z,12.97
2023-02-19T07:56:08.046Z,6.43
2023-02-19T07:58:35.633Z,7.20
2023-02-19T08:01:16.988Z,6.27
2023-02-19T08:03:44.753Z,12.93
2023-02-19T08:06:12.700Z,5.73
2023-02-19T08:08:40.906Z,5.93
2023-02-19T08:11:27.149Z,10.80
2023-02-19T08:13:54.962Z,11.60
2023-02-19T08:16:36.771Z,17.63
2023-02-19T08:19:08.421Z,7.53
2023-02-19T08:21:36.203Z,10.20
2023-02-19T08:24:03.526Z,8.17
2023-02-19T08:26:30.930Z,4.63
2023-02-19T08:28:59.024Z,10.43
2023-02-19T08:31:27.183Z,2.87
2023-02-19T08:33:55.433Z,4.63
2023-02-19T08:36:26.502Z,3.53
2023-02-19T08:38:57.889Z,5.93
2023-02-19T08:41:25.352Z,5.00
2023-02-19T08:43:52.735Z,6.10
2023-02-19T08:46:20.484Z,4.73
2023-02-19T08:48:48.028Z,5.53
2023-02-19T08:51:15.631Z,7.50
2023-02-19T08:53:43.200Z,4.23
2023-02-19T08:56:12.136Z,5.90
2023-02-19T08:58:40.246Z,6.00
2023-02-19T09:01:12.577Z,4.17
2023-02-19T09:03:40.709Z,5.30
2023-02-19T09:06:08.702Z,3.37
2023-02-19T09:08:36.392Z,4.87
2023-02-19T09:11:04.868Z,5.17
2023-02-19T09:13:32.426Z,5.93
2023-02-19T09:15:59.787Z,3.93
2023-02-19T09:18:27.213Z,5.60
2023-02-19T09:20:54.686Z,3.23
2023-02-19T09:23:22.067Z,5.03
2023-02-19T09:25:49.443Z,3.20
2023-02-19T09:28:16.919Z,6.53
2023-02-19T09:30:44.291Z,5.23
2023-02-19T09:33:11.857Z,2.97
2023-02-19T09:35:40.895Z,6.57
2023-02-19T09:38:10.933Z,4.87
2023-02-19T09:40:39.111Z,3.50
2023-02-19T09:43:11.108Z,6.33
2023-02-19T09:45:38.400Z,4.90
2023-02-19T09:48:06.347Z,4.40
2023-02-19T09:50:36.729Z,3.70
2023-02-19T09:53:05.306Z,4.97
2023-02-19T09:55:36.112Z,4.67
2023-02-19T10:01:41.244Z,4.77
2023-02-19T10:04:11.755Z,3.83
2023-02-19T10:06:39.090Z,4.50
2023-02-19T10:09:17.896Z,3.40
2023-02-19T10:11:45.781Z,2.57
2023-02-19T10:14:16.027Z,5.90
2023-02-19T10:16:45.225Z,3.90
2023-02-19T10:19:13.459Z,6.17
2023-02-19T10:21:40.750Z,3.63
2023-02-19T10:24:08.970Z,4.67
2023-02-19T10:26:36.837Z,3.00
2023-02-19T10:29:05.032Z,4.37
2023-02-19T10:31:33.317Z,4.00
2023-02-19T10:34:02.040Z,7.03
2023-02-19T10:36:32.279Z,7.00
2023-02-19T10:39:01.144Z,5.70
2023-02-19T10:41:29.218Z,5.53
2023-02-19T10:44:01.964Z,5.43
2023-02-19T10:46:30.779Z,6.97
2023-02-19T10:48:58.193Z,5.97
2023-02-19T10:51:32.948Z,4.73
2023-02-19T10:54:19.362Z,5.73
2023-02-19T10:56:46.903Z,4.83
2023-02-19T10:59:27.829Z,6.43
2023-02-19T11:01:55.915Z,4.13
2023-02-19T11:04:23.426Z,6.30
2023-02-19T11:06:50.839Z,6.10
2023-02-19T11:09:35.553Z,6.87
2023-02-19T11:12:04.935Z,6.47
2023-02-19T11:14:32.906Z,3.80
2023-02-19T11:17:01.432Z,3.70
2023-02-19T11:19:34.891Z,5.33
2023-02-19T11:22:03.016Z,4.47
2023-02-19T11:24:37.660Z,5.20
2023-02-19T11:27:06.485Z,8.10
2023-02-19T11:29:35.402Z,6.20
2023-02-19T11:32:21.034Z,4.83
2023-02-19T11:34:48.843Z,8.10
2023-02-19T11:37:17.238Z,5.67
2023-02-19T11:39:48.956Z,17.83
2023-02-19T11:42:31.599Z,6.10
2023-02-19T11:45:11.465Z,4.70
2023-02-19T11:47:44.883Z,5.80
2023-02-19T11:50:15.084Z,7.27
2023-02-19T11:52:51.582Z,7.10
2023-02-19T11:55:31.100Z,4.93
2023-02-19T11:58:37.022Z,4.63
2023-02-19T12:01:10.704Z,4.20
2023-02-19T12:03:50.812Z,8.63
2023-02-19T12:06:29.849Z,3.77
2023-02-19T12:08:57.788Z,3.13
2023-02-19T12:11:36.107Z,2.60
2023-02-19T12:14:28.494Z,3.30
2023-02-19T12:17:01.933Z,6.80
2023-02-19T12:19:32.185Z,3.77
2023-02-19T12:22:05.643Z,6.70
2023-02-19T12:24:39.031Z,5.73
2023-02-19T12:27:16.690Z,4.30
2023-02-19T12:29:56.104Z,3.30
2023-02-19T12:32:31.380Z,3.10
2023-02-19T12:35:15.540Z,2.33
2023-02-19T12:37:52.111Z,3.00
2023-02-19T12:40:28.652Z,4.33
2023-02-19T12:43:28.363Z,4.53
2023-02-19T12:46:15.543Z,4.43
2023-02-19T12:48:49.024Z,5.30
2023-02-19T12:51:49.172Z,3.83
2023-02-19T12:54:25.888Z,4.63
2023-02-19T12:57:21.069Z,5.27
2023-02-19T12:59:48.384Z,3.50
2023-02-19T13:02:22.730Z,3.80
2023-02-19T13:04:59.297Z,3.17
2023-02-19T13:07:36.904Z,2.50
2023-02-19T13:10:17.954Z,3.30
2023-02-19T13:12:45.937Z,4.03
2023-02-19T13:15:32.009Z,3.87
2023-02-19T13:18:01.577Z,4.67
2023-02-19T13:20:33.420Z,3.67
2023-02-19T13:23:38.660Z,4.00
2023-02-19T13:26:05.920Z,4.53
2023-02-19T13:28:33.170Z,3.40
2023-02-19T13:31:12.061Z,6.07
2023-02-19T13:33:58.247Z,4.63
2023-02-19T13:36:30.146Z,7.03
2023-02-19T13:38:58.461Z,4.33
2023-02-19T13:41:30.776Z,1.90
2023-02-19T13:44:00.517Z,7.13
2023-02-19T13:46:34.511Z,5.53
2023-02-19T13:49:24.644Z,3.93
2023-02-19T13:51:59.172Z,3.20
2023-02-19T13:54:26.800Z,5.97
2023-02-19T13:57:14.804Z,3.90
2023-02-19T13:59:45.188Z,4.13
2023-02-19T14:02:14.399Z,5.60
2023-02-19T14:04:43.771Z,6.00
2023-02-19T14:07:11.232Z,6.73
2023-02-19T14:09:43.792Z,5.77
2023-02-19T14:12:11.817Z,9.60
2023-02-19T14:14:41.290Z,4.57
2023-02-19T14:17:18.029Z,6.67
2023-02-19T14:19:47.146Z,8.33
2023-02-19T14:22:33.514Z,7.53
2023-02-19T14:25:01.250Z,8.00
2023-02-19T14:27:28.796Z,7.93
2023-02-19T14:29:56.379Z,6.97
2023-02-19T14:32:23.799Z,6.00
2023-02-19T14:34:51.122Z,6.10
2023-02-19T14:37:20.166Z,6.00
2023-02-19T14:39:47.817Z,6.80
2023-02-19T14:42:17.697Z,10.57
2023-02-19T14:44:52.493Z,5.80
2023-02-19T14:47:22.068Z,7.70
2023-02-19T14:49:59.294Z,7.07
2023-02-19T14:52:29.040Z,11.47
2023-02-19T14:54:59.062Z,10.13
2023-02-19T14:57:29.137Z,10.77
2023-02-19T15:00:00.511Z,9.93
2023-02-19T15:02:29.146Z,11.80
2023-02-19T15:04:56.627Z,8.20
2023-02-19T15:07:25.475Z,9.20
2023-02-19T15:09:57.052Z,11.83
2023-02-19T15:12:25.825Z,12.13
2023-02-19T15:14:57.889Z,10.63
2023-02-19T15:17:30.014Z,15.30
2023-02-19T15:19:59.279Z,9.77
2023-02-19T15:22:28.282Z,13.57
2023-02-19T15:24:55.951Z,15.97
2023-02-19T15:27:24.274Z,14.70
2023-02-19T15:29:53.664Z,11.90
2023-02-19T15:32:28.429Z,12.53
2023-02-19T15:35:02.967Z,12.23
2023-02-19T15:37:31.779Z,10.57
2023-02-19T15:40:01.143Z,8.50
2023-02-19T15:42:34.674Z,14.00
2023-02-19T15:45:05.517Z,22.57
2023-02-19T15:47:35.909Z,9.07
2023-02-19T15:50:23.568Z,7.63
2023-02-19T15:52:59.999Z,5.27
2023-02-19T15:55:30.488Z,4.07
2023-02-19T15:58:09.942Z,8.60
2023-02-19T16:00:37.385Z,7.57
2023-02-19T16:03:05.533Z,4.60
2023-02-19T16:05:39.345Z,6.23
2023-02-19T16:08:08.277Z,7.73
2023-02-19T16:10:35.714Z,4.73
2023-02-19T16:13:04.215Z,7.00
2023-02-19T16:15:32.662Z,7.13
2023-02-19T16:18:00.242Z,4.70
2023-02-19T16:20:29.080Z,8.73
2023-02-19T16:23:04.629Z,9.93
2023-02-19T16:25:32.074Z,5.30
2023-02-19T16:27:59.575Z,9.43
2023-02-19T16:30:28.628Z,13.47
2023-02-19T16:33:15.034Z,6.67
2023-02-19T16:35:42.450Z,6.97
2023-02-19T16:38:16.897Z,8.90
2023-02-19T16:40:54.304Z,7.43
2023-02-19T16:43:26.394Z,9.10
2023-02-19T16:45:53.999Z,5.90
2023-02-19T16:48:22.099Z,9.07
2023-02-19T16:50:50.100Z,6.90
2023-02-19T16:53:21.541Z,12.90
2023-02-19T16:55:49.122Z,5.17
2023-02-19T16:58:16.562Z,9.37
2023-02-19T17:00:44.117Z,7.57
2023-02-19T17:03:13.050Z,9.80
2023-02-19T17:05:42.262Z,8.40
2023-02-19T17:08:31.820Z,10.63
2023-02-19T17:10:59.472Z,6.90
2023-02-19T17:13:27.528Z,7.20
2023-02-19T17:15:55.214Z,13.63
2023-02-19T17:18:22.842Z,8.30
2023-02-19T17:20:56.409Z,7.83
2023-02-19T17:23:24.601Z,8.73
2023-02-19T17:25:52.216Z,8.97
2023-02-19T17:28:19.925Z,7.17
2023-02-19T17:30:47.372Z,9.17
2023-02-19T17:33:15.210Z,5.80
2023-02-19T17:35:44.685Z,8.77
2023-02-19T17:38:15.667Z,13.53
2023-02-19T17:40:43.257Z,7.53
2023-02-19T17:43:10.676Z,8.57
2023-02-19T17:45:38.396Z,7.83
2023-02-19T17:48:06.925Z,9.60
2023-02-19T17:50:34.397Z,9.70
2023-02-19T17:53:02.003Z,8.67
2023-02-19T17:55:29.526Z,10.60
2023-02-19T17:57:57.077Z,7.37
2023-02-19T18:00:26.693Z,7.77
2023-02-19T18:02:57.106Z,6.73
2023-02-19T18:05:25.152Z,9.03
2023-02-19T18:07:53.287Z,14.57
2023-02-19T18:10:23.367Z,14.50
2023-02-19T18:12:51.452Z,14.13
2023-02-19T18:15:21.215Z,9.27
2023-02-19T18:17:48.624Z,12.73
2023-02-19T18:20:21.487Z,12.80
2023-02-19T18:22:49.631Z,27.50
2023-02-19T18:25:17.385Z,20.73
2023-02-19T18:27:45.082Z,43.70
2023-02-19T18:30:12.632Z,11.07
2023-02-19T18:32:40.454Z,9.80
2023-02-19T18:35:08.371Z,8.97
2023-02-19T18:37:36.046Z,19.30
2023-02-19T18:40:04.786Z,14.23
2023-02-19T18:42:32.262Z,14.00
2023-02-19T18:44:59.690Z,15.30
2023-02-19T18:47:27.369Z,14.17
2023-02-19T18:49:59.561Z,13.13
2023-02-19T18:52:27.530Z,16.93
2023-02-19T18:54:57.951Z,16.67
2023-02-19T18:57:26.893Z,14.87
2023-02-19T18:59:55.676Z,25.40
2023-02-19T19:02:23.781Z,25.30
2023-02-19T19:04:52.692Z,24.70
2023-02-19T19:07:20.770Z,25.97
2023-02-19T19:09:48.565Z,20.10
2023-02-19T19:12:16.466Z,25.83
2023-02-19T19:14:43.931Z,19.57
2023-02-19T19:17:11.452Z,16.93
2023-02-19T19:19:40.188Z,17.17
2023-02-19T19:22:08.018Z,18.30
2023-02-19T19:24:35.586Z,16.53
2023-02-19T19:27:03.038Z,20.83
2023-02-19T19:29:30.911Z,19.03
2023-02-19T19:31:58.743Z,15.50
2023-02-19T19:34:26.423Z,17.47
2023-02-19T19:36:53.846Z,18.93
2023-02-19T19:39:21.270Z,17.27
2023-02-19T19:41:53.637Z,18.73
2023-02-19T19:44:21.070Z,20.70
2023-02-19T19:46:48.647Z,15.97
2023-02-19T19:49:19.484Z,20.37
2023-02-19T19:51:46.999Z,18.70
2023-02-19T19:54:14.600Z,20.47
2023-02-19T19:56:43.150Z,19.73
2023-02-19T19:59:11.615Z,20.10
2023-02-19T20:01:39.044Z,16.80
2023-02-19T20:04:06.766Z,26.23
2023-02-19T20:06:34.169Z,45.93
2023-02-19T20:09:01.660Z,67.78
2023-02-19T20:11:29.006Z,47.70
2023-02-19T20:13:56.446Z,28.97
2023-02-19T20:16:24.748Z,25.00
2023-02-19T20:18:52.053Z,20.33
2023-02-19T20:21:19.851Z,19.90
2023-02-19T20:23:47.480Z,17.57
2023-02-19T20:26:21.462Z,26.33
2023-02-19T20:28:48.921Z,20.63
2023-02-19T20:31:16.538Z,23.03
2023-02-19T20:33:44.071Z,21.43
2023-02-19T20:36:11.964Z,20.10
2023-02-19T20:38:39.586Z,19.10
2023-02-19T20:41:07.242Z,15.70
2023-02-19T20:43:34.560Z,23.43
2023-02-19T20:46:02.387Z,20.37
2023-02-19T20:48:29.927Z,18.37
2023-02-19T20:50:59.528Z,20.97
2023-02-19T20:53:27.847Z,28.03
2023-02-19T20:55:56.105Z,29.53
2023-02-19T20:58:24.431Z,30.00
2023-02-19T21:00:53.570Z,23.47
2023-02-19T21:03:21.385Z,16.90
2023-02-19T21:05:48.873Z,16.83
2023-02-19T21:08:17.645Z,16.50
2023-02-19T21:10:45.911Z,17.90
2023-02-19T21:13:13.575Z,25.53
2023-02-19T21:15:41.152Z,26.20
2023-02-19T21:18:08.566Z,20.17
2023-02-19T21:20:36.187Z,18.67
2023-02-19T21:23:03.986Z,21.23
2023-02-19T21:25:33.119Z,20.43
2023-02-19T21:28:00.567Z,22.40
2023-02-19T21:30:28.797Z,21.07
2023-02-19T21:32:56.307Z,24.43
2023-02-19T21:35:23.672Z,25.93
2023-02-19T21:37:51.064Z,24.73
2023-02-19T21:40:19.975Z,25.00
2023-02-19T21:42:47.784Z,19.70
2023-02-19T21:45:15.270Z,27.03
2023-02-19T21:47:43.609Z,25.40
2023-02-19T21:50:16.389Z,27.27
2023-02-19T21:52:44.268Z,19.87
2023-02-19T21:55:11.572Z,23.43
2023-02-19T21:57:38.994Z,20.77
2023-02-19T22:00:07.404Z,22.40
2023-02-19T22:02:35.082Z,15.90
2023-02-19T22:05:02.648Z,15.37
2023-02-19T22:07:30.659Z,15.53
2023-02-19T22:09:58.125Z,11.67
2023-02-19T22:12:25.583Z,14.77
2023-02-19T22:14:52.992Z,17.10
2023-02-19T22:17:20.931Z,10.23
2023-02-19T22:19:48.329Z,12.87
2023-02-19T22:22:15.840Z,12.23
2023-02-19T22:24:43.273Z,12.30
2023-02-19T22:27:10.684Z,11.10
2023-02-19T22:29:38.099Z,11.37
2023-02-19T22:32:05.682Z,10.33
2023-02-19T22:34:33.192Z,9.73
2023-02-19T22:37:00.550Z,10.87
2023-02-19T22:39:28.027Z,9.20
2023-02-19T22:41:55.469Z,11.10
2023-02-19T22:44:22.911Z,8.97
2023-02-19T22:46:54.884Z,10.83
2023-02-19T22:49:22.952Z,10.97
2023-02-19T22:51:51.947Z,13.47
2023-02-19T22:54:21.958Z,12.40
2023-02-19T22:56:49.364Z,8.37
2023-02-19T22:59:17.024Z,9.30
2023-02-19T23:01:44.378Z,6.53
2023-02-19T23:04:11.783Z,10.53
2023-02-19T23:06:42.029Z,8.97
2023-02-19T23:09:11.197Z,6.27
2023-02-19T23:11:39.323Z,8.40
2023-02-19T23:14:07.260Z,6.97
2023-02-19T23:16:38.399Z,8.40
2023-02-19T23:19:07.299Z,11.93
2023-02-19T23:21:34.795Z,8.70
2023-02-19T23:24:02.307Z,9.40
2023-02-19T23:26:29.866Z,16.17
2023-02-19T23:28:57.330Z,11.43
2023-02-19T23:31:26.123Z,13.77
2023-02-19T23:33:54.060Z,18.40
2023-02-19T23:36:23.808Z,10.00
2023-02-19T23:38:51.454Z,15.47
2023-02-19T23:41:19.397Z,10.53
2023-02-19T23:43:47.361Z,14.70
2023-02-19T23:46:17.360Z,11.97
2023-02-19T23:48:46.008Z,11.83
2023-02-19T23:51:13.345Z,14.43
2023-02-19T23:53:40.788Z,11.93
2023-02-19T23:56:08.444Z,10.27
2023-02-19T23:58:35.807Z,9.40
